Time;durP1;ratioP1;P1;durP2;ratioP2;P2;SDS_P1;SDS_P2;PMS_P1;PMS_P2;Temp;Humidity;BMP_temperature;BMP_pressure;BME280_temperature;BME280_humidity;BME280_pressure;Samples;Min_cycle;Max_cycle;Signal;HPM_P1;HPM_P2
2022/09/19 00:00:26;;;;;;;8.88;2.65;;;;;;;;;;4970473;28;20519;-66
2022/09/19 00:02:57;;;;;;;7.75;2.17;;;;;;;;;;4953505;28;20051;-66
2022/09/19 00:05:27;;;;;;;7.75;2.42;;;;;;;;;;4970557;28;20051;-66
2022/09/19 00:07:57;;;;;;;7.60;2.45;;;;;;;;;;4980239;28;20058;-66
2022/09/19 00:10:28;;;;;;;6.95;2.28;;;;;;;;;;4989743;28;20080;-66
2022/09/19 00:12:58;;;;;;;8.95;2.55;;;;;;;;;;4973878;28;20454;-66
2022/09/19 00:15:28;;;;;;;11.80;3.00;;;;;;;;;;4989917;28;20579;-66
2022/09/19 00:17:58;;;;;;;7.75;2.60;;;;;;;;;;4950913;29;20063;-66
2022/09/19 00:20:29;;;;;;;11.13;2.55;;;;;;;;;;4951067;29;20062;-66
2022/09/19 00:26:09;;;;;;;7.45;2.50;;;;;;;;;;4934882;29;20052;-67
2022/09/19 00:28:45;;;;;;;8.10;2.50;;;;;;;;;;4951142;29;20066;-66
2022/09/19 00:31:18;;;;;;;6.60;2.00;;;;;;;;;;4950897;29;20055;-66
2022/09/19 00:33:49;;;;;;;6.95;2.30;;;;;;;;;;4966965;28;20393;-67
2022/09/19 00:36:19;;;;;;;8.20;2.53;;;;;;;;;;4976981;28;20166;-66
2022/09/19 00:38:50;;;;;;;8.82;2.42;;;;;;;;;;5009227;28;20041;-66
2022/09/19 00:41:26;;;;;;;9.85;2.25;;;;;;;;;;5040784;28;20076;-67
2022/09/19 00:44:02;;;;;;;7.65;2.65;;;;;;;;;;5048752;28;20392;-67
2022/09/19 00:46:34;;;;;;;7.95;2.50;;;;;;;;;;5032332;28;20144;-67
2022/09/19 00:49:10;;;;;;;9.75;2.28;;;;;;;;;;5048622;28;20060;-67
2022/09/19 00:51:50;;;;;;;10.30;2.78;;;;;;;;;;5031908;28;20397;-66
2022/09/19 00:54:25;;;;;;;9.50;2.67;;;;;;;;;;5048476;28;20056;-66
2022/09/19 00:56:57;;;;;;;9.02;2.47;;;;;;;;;;5069733;28;20048;-67
2022/09/19 00:59:30;;;;;;;8.45;2.42;;;;;;;;;;5071397;28;20052;-66
2022/09/19 01:02:04;;;;;;;10.63;3.00;;;;;;;;;;5070646;28;20052;-67
2022/09/19 01:04:38;;;;;;;9.45;3.05;;;;;;;;;;5074915;28;20044;-67
2022/09/19 01:07:35;;;;;;;7.85;2.67;;;;;;;;;;5072182;28;20041;-66
2022/09/19 01:10:18;;;;;;;8.70;3.17;;;;;;;;;;5038830;28;20060;-67
2022/09/19 01:13:09;;;;;;;9.35;2.67;;;;;;;;;;5072252;28;20056;-67
2022/09/19 01:15:53;;;;;;;8.38;3.22;;;;;;;;;;5022792;28;20539;-66
2022/09/19 01:18:46;;;;;;;7.63;2.80;;;;;;;;;;5055188;28;20048;-67
2022/09/19 01:21:54;;;;;;;11.98;3.25;;;;;;;;;;5031887;28;20056;-66
2022/09/19 01:24:27;;;;;;;9.55;3.00;;;;;;;;;;4930974;29;20056;-66
2022/09/19 01:27:18;;;;;;;8.90;3.35;;;;;;;;;;4915822;29;20056;-66
2022/09/19 01:29:59;;;;;;;12.60;3.30;;;;;;;;;;4916039;29;20072;-67
2022/09/19 01:32:54;;;;;;;8.18;2.75;;;;;;;;;;4934424;29;20040;-66
2022/09/19 01:35:29;;;;;;;5.70;2.50;;;;;;;;;;4887457;29;20056;-66
2022/09/19 01:38:12;;;;;;;7.25;2.85;;;;;;;;;;4934710;29;20055;-66
2022/09/19 01:40:43;;;;;;;6.47;2.83;;;;;;;;;;4896365;29;20060;-66
2022/09/19 01:43:16;;;;;;;9.07;3.13;;;;;;;;;;4896710;29;20055;-66
2022/09/19 01:45:47;;;;;;;;;;;;;;;;;;4891714;29;20065;-67
2022/09/19 01:48:33;;;;;;;11.95;3.30;;;;;;;;;;4914968;29;20384;-66
2022/09/19 01:51:18;;;;;;;10.95;3.00;;;;;;;;;;4899799;29;20063;-66
2022/09/19 01:54:25;;;;;;;7.82;3.17;;;;;;;;;;4914910;29;20048;-66
2022/09/19 01:57:27;;;;;;;14.15;3.30;;;;;;;;;;4930891;29;20130;-66
2022/09/19 02:00:03;;;;;;;7.47;3.13;;;;;;;;;;4917840;29;20058;-66
2022/09/19 02:02:57;;;;;;;9.43;3.17;;;;;;;;;;4934207;29;20504;-66
2022/09/19 02:05:58;;;;;;;14.10;3.40;;;;;;;;;;4914723;29;20055;-66
2022/09/19 02:08:47;;;;;;;12.90;4.00;;;;;;;;;;4933638;29;20058;-66
2022/09/19 02:11:27;;;;;;;12.40;3.55;;;;;;;;;;4894942;29;20049;-66
2022/09/19 02:14:01;;;;;;;12.48;3.95;;;;;;;;;;4894785;29;20063;-66
2022/09/19 02:16:39;;;;;;;12.60;3.63;;;;;;;;;;4910530;29;20059;-66
2022/09/19 02:19:36;;;;;;;10.52;3.72;;;;;;;;;;4894892;29;20109;-66
2022/09/19 02:22:11;;;;;;;13.27;4.28;;;;;;;;;;4879806;29;20061;-66
2022/09/19 02:24:45;;;;;;;12.00;3.95;;;;;;;;;;4857644;29;20509;-66
2022/09/19 02:27:29;;;;;;;9.77;3.85;;;;;;;;;;4894696;29;20056;-66
2022/09/19 02:30:05;;;;;;;11.85;4.32;;;;;;;;;;4894605;29;20056;-66
2022/09/19 02:32:47;;;;;;;15.50;3.50;;;;;;;;;;4894610;29;20063;-66
2022/09/19 02:35:36;;;;;;;14.35;3.50;;;;;;;;;;4844244;29;20061;-66
2022/09/19 02:38:22;;;;;;;13.57;3.17;;;;;;;;;;4886512;29;20052;-66
2022/09/19 02:41:22;;;;;;;10.07;3.50;;;;;;;;;;4913697;29;20548;-66
2022/09/19 02:44:00;;;;;;;10.20;3.55;;;;;;;;;;4947755;29;20052;-66
2022/09/19 02:46:52;;;;;;;8.23;3.50;;;;;;;;;;4963717;28;20148;-66
2022/09/19 02:49:38;;;;;;;;;;;;;;;;;;4971057;28;20050;-66
2022/09/19 02:52:30;;;;;;;10.88;3.92;;;;;;;;;;4954888;28;20436;-66
2022/09/19 02:55:16;;;;;;;11.40;3.58;;;;;;;;;;4946408;29;20058;-66
2022/09/19 02:57:49;;;;;;;13.85;3.45;;;;;;;;;;4894009;29;20056;-67
2022/09/19 03:00:24;;;;;;;12.73;4.30;;;;;;;;;;4854140;29;20057;-66
2022/09/19 03:06:08;;;;;;;11.32;3.67;;;;;;;;;;4875738;29;20065;-66
2022/09/19 03:08:39;;;;;;;12.18;3.53;;;;;;;;;;4792699;29;2465819;-66
2022/09/19 03:11:15;;;;;;;11.25;3.53;;;;;;;;;;4876188;29;20060;-66
2022/09/19 03:13:46;;;;;;;10.55;3.60;;;;;;;;;;4876571;29;20092;-66
2022/09/19 03:16:23;;;;;;;10.38;3.78;;;;;;;;;;4876055;29;20064;-66
2022/09/19 03:18:57;;;;;;;10.73;3.95;;;;;;;;;;4857439;29;20058;-66
2022/09/19 03:21:30;;;;;;;13.30;3.55;;;;;;;;;;4858513;29;20062;-66
2022/09/19 03:24:02;;;;;;;10.13;3.33;;;;;;;;;;4872742;29;20207;-66
2022/09/19 03:26:35;;;;;;;9.40;3.22;;;;;;;;;;4916726;29;20059;-66
2022/09/19 03:29:09;;;;;;;14.77;3.75;;;;;;;;;;4928811;29;20044;-66
2022/09/19 03:31:47;;;;;;;13.68;4.05;;;;;;;;;;4894662;29;20055;-66
2022/09/19 03:34:19;;;;;;;11.10;3.60;;;;;;;;;;4902408;29;20063;-66
2022/09/19 03:36:51;;;;;;;10.55;3.67;;;;;;;;;;4894375;29;20067;-66
2022/09/19 03:39:28;;;;;;;14.40;3.83;;;;;;;;;;4913685;29;20060;-66
2022/09/19 03:42:00;;;;;;;9.02;3.45;;;;;;;;;;4913266;29;20103;-66
2022/09/19 03:44:32;;;;;;;9.18;3.40;;;;;;;;;;4913082;29;20044;-66
2022/09/19 03:47:03;;;;;;;8.15;3.70;;;;;;;;;;4894113;29;20049;-66
2022/09/19 03:49:33;;;;;;;12.10;3.70;;;;;;;;;;4859985;29;20057;-66
2022/09/19 03:52:03;;;;;;;10.85;3.67;;;;;;;;;;4856888;29;20049;-66
2022/09/19 03:54:35;;;;;;;8.65;3.33;;;;;;;;;;4885196;29;20064;-66
2022/09/19 03:57:07;;;;;;;11.10;4.18;;;;;;;;;;4879590;29;20490;-66
2022/09/19 03:59:41;;;;;;;9.68;2.85;;;;;;;;;;4920233;29;20060;-66
2022/09/19 04:02:12;;;;;;;10.85;3.53;;;;;;;;;;4902111;29;20464;-66
2022/09/19 04:04:42;;;;;;;9.10;3.15;;;;;;;;;;4893948;29;20059;-66
2022/09/19 04:07:13;;;;;;;12.35;3.58;;;;;;;;;;4881251;29;20056;-66
2022/09/19 04:09:44;;;;;;;12.57;3.72;;;;;;;;;;4877321;29;20059;-66
2022/09/19 04:12:15;;;;;;;12.82;3.92;;;;;;;;;;4908498;29;20530;-67
2022/09/19 04:14:45;;;;;;;9.07;3.67;;;;;;;;;;4884615;29;20415;-66
2022/09/19 04:17:16;;;;;;;9.23;3.45;;;;;;;;;;4894091;29;20057;-66
2022/09/19 04:19:55;;;;;;;10.13;3.50;;;;;;;;;;4874790;29;20053;-66
2022/09/19 04:22:49;;;;;;;11.23;3.25;;;;;;;;;;4890571;29;20065;-66
2022/09/19 04:25:38;;;;;;;10.52;3.30;;;;;;;;;;4894171;29;20052;-66
2022/09/19 04:28:17;;;;;;;9.65;3.60;;;;;;;;;;4876880;29;20048;-66
2022/09/19 04:30:47;;;;;;;8.32;3.40;;;;;;;;;;4822370;29;20526;-66
2022/09/19 04:33:18;;;;;;;8.85;3.28;;;;;;;;;;4856176;29;20570;-66
2022/09/19 04:35:49;;;;;;;8.98;3.50;;;;;;;;;;4855957;29;20062;-67
2022/09/19 04:38:20;;;;;;;8.00;3.50;;;;;;;;;;4852846;29;20057;-66
2022/09/19 04:40:57;;;;;;;9.13;3.50;;;;;;;;;;4866878;29;20046;-66
2022/09/19 04:43:31;;;;;;;10.48;3.38;;;;;;;;;;4891362;29;20052;-66
2022/09/19 04:46:18;;;;;;;11.68;3.75;;;;;;;;;;4855970;29;20053;-66
2022/09/19 04:48:56;;;;;;;9.15;3.67;;;;;;;;;;4856076;29;20506;-66
2022/09/19 04:51:31;;;;;;;16.23;3.70;;;;;;;;;;4837803;29;20061;-67
2022/09/19 04:54:02;;;;;;;10.63;3.42;;;;;;;;;;4883775;29;20520;-67
2022/09/19 04:56:32;;;;;;;12.10;3.67;;;;;;;;;;4854008;29;20057;-67
2022/09/19 04:59:04;;;;;;;10.65;3.38;;;;;;;;;;4893143;29;20056;-66
2022/09/19 05:01:39;;;;;;;15.32;3.42;;;;;;;;;;4908123;29;20048;-66
2022/09/19 05:04:09;;;;;;;9.27;2.97;;;;;;;;;;4911427;29;20063;-67
2022/09/19 05:06:39;;;;;;;12.50;3.38;;;;;;;;;;4911911;29;20052;-66
2022/09/19 05:09:11;;;;;;;12.88;3.83;;;;;;;;;;4907582;29;20071;-66
2022/09/19 05:11:50;;;;;;;9.45;3.47;;;;;;;;;;4911825;29;20493;-66
2022/09/19 05:14:21;;;;;;;8.90;3.38;;;;;;;;;;4911742;29;20178;-67
2022/09/19 05:16:56;;;;;;;10.52;3.50;;;;;;;;;;4904825;29;20064;-66
2022/09/19 05:19:27;;;;;;;8.77;3.08;;;;;;;;;;4935002;29;20435;-66
2022/09/19 05:21:58;;;;;;;8.30;3.65;;;;;;;;;;4950208;29;20059;-66
2022/09/19 05:24:29;;;;;;;6.38;2.75;;;;;;;;;;4988259;28;20554;-66
2022/09/19 05:27:01;;;;;;;9.55;3.15;;;;;;;;;;4950136;28;20059;-66
2022/09/19 05:29:36;;;;;;;8.68;3.30;;;;;;;;;;4937927;29;20067;-66
2022/09/19 05:32:07;;;;;;;8.75;3.33;;;;;;;;;;4930643;29;20051;-66
2022/09/19 05:34:40;;;;;;;10.73;3.58;;;;;;;;;;4946250;29;20640;-66
2022/09/19 05:37:27;;;;;;;7.65;2.92;;;;;;;;;;4881931;29;20187;-66
2022/09/19 05:40:37;;;;;;;8.63;2.92;;;;;;;;;;4783303;29;20048;-67
2022/09/19 05:43:30;;;;;;;12.05;3.30;;;;;;;;;;4777461;29;20056;-67
2022/09/19 05:46:01;;;;;;;11.00;3.50;;;;;;;;;;4779563;29;20051;-67
2022/09/19 05:48:31;;;;;;;9.25;3.25;;;;;;;;;;4803549;29;20062;-67
2022/09/19 05:51:03;;;;;;;9.55;3.25;;;;;;;;;;4802731;29;20062;-67
2022/09/19 05:56:40;;;;;;;7.72;3.17;;;;;;;;;;4804557;29;20063;-67
2022/09/19 05:59:13;;;;;;;10.80;3.03;;;;;;;;;;4822206;29;20062;-67
2022/09/19 06:01:45;;;;;;;7.90;3.05;;;;;;;;;;4818206;29;20050;-67
2022/09/19 06:04:35;;;;;;;8.40;2.80;;;;;;;;;;4812400;29;20599;-67
2022/09/19 06:07:11;;;;;;;11.63;2.92;;;;;;;;;;4807108;29;20047;-67
2022/09/19 06:09:44;;;;;;;8.00;3.05;;;;;;;;;;4839774;29;20061;-67
2022/09/19 06:12:15;;;;;;;5.00;1.33;;;;;;;;;;4858786;29;20068;-67
2022/09/19 06:14:46;;;;;;;8.23;1.90;;;;;;;;;;4830919;29;20052;-68
2022/09/19 06:17:18;;;;;;;;;;;;;;;;;;4859018;29;20057;-67
2022/09/19 06:20:09;;;;;;;3.53;1.80;;;;;;;;;;4844726;29;20193;-67
2022/09/19 06:23:03;;;;;;;6.35;1.48;;;;;;;;;;4859053;29;20054;-68
2022/09/19 06:25:35;;;;;;;5.38;1.50;;;;;;;;;;4847929;29;20064;-68
2022/09/19 06:28:10;;;;;;;5.40;1.58;;;;;;;;;;4876769;29;20061;-67
2022/09/19 06:30:59;;;;;;;5.68;1.42;;;;;;;;;;4869944;29;20053;-67
2022/09/19 06:33:45;;;;;;;3.38;1.30;;;;;;;;;;4858634;29;20061;-67
2022/09/19 06:36:23;;;;;;;6.30;1.80;;;;;;;;;;4863808;29;20552;-67
2022/09/19 06:38:54;;;;;;;4.70;1.30;;;;;;;;;;4863289;29;20175;-67
2022/09/19 06:41:47;;;;;;;4.50;1.52;;;;;;;;;;4848630;29;20057;-66
2022/09/19 06:44:43;;;;;;;3.33;1.55;;;;;;;;;;4858223;29;20525;-66
2022/09/19 06:47:39;;;;;;;8.07;1.55;;;;;;;;;;4858314;29;20053;-67
2022/09/19 06:50:16;;;;;;;5.55;1.67;;;;;;;;;;4812328;29;20084;-67
2022/09/19 06:52:56;;;;;;;4.43;1.70;;;;;;;;;;4794513;29;20428;-67
2022/09/19 06:55:28;;;;;;;3.75;1.42;;;;;;;;;;4766768;30;20086;-67
2022/09/19 06:58:04;;;;;;;4.20;1.80;;;;;;;;;;4802909;29;21142;-67
2022/09/19 07:00:38;;;;;;;5.78;2.00;;;;;;;;;;4820474;29;20062;-67
2022/09/19 07:03:15;;;;;;;4.47;1.67;;;;;;;;;;4791028;29;20098;-67
2022/09/19 07:05:56;;;;;;;5.45;1.77;;;;;;;;;;4812887;29;20051;-67
2022/09/19 07:08:38;;;;;;;4.05;1.40;;;;;;;;;;4836743;29;20062;-66
2022/09/19 07:11:11;;;;;;;5.45;2.00;;;;;;;;;;4839372;29;20062;-67
2022/09/19 07:13:49;;;;;;;4.82;1.65;;;;;;;;;;4839443;29;20061;-67
2022/09/19 07:16:21;;;;;;;4.63;1.80;;;;;;;;;;4833289;29;20054;-66
2022/09/19 07:18:51;;;;;;;5.32;1.77;;;;;;;;;;4839072;29;20053;-66
2022/09/19 07:21:35;;;;;;;4.72;1.80;;;;;;;;;;4838985;29;20054;-70
2022/09/19 07:24:11;;;;;;;4.78;1.85;;;;;;;;;;4841799;29;20056;-69
2022/09/19 07:27:00;;;;;;;5.47;2.15;;;;;;;;;;4845104;29;20064;-69
2022/09/19 07:29:31;;;;;;;5.88;1.58;;;;;;;;;;4837378;29;20054;-69
2022/09/19 07:32:02;;;;;;;9.40;2.05;;;;;;;;;;4842189;29;20065;-69
2022/09/19 07:34:33;;;;;;;4.72;1.73;;;;;;;;;;4856495;29;20136;-69
2022/09/19 07:37:05;;;;;;;4.55;1.83;;;;;;;;;;4863087;29;20440;-70
2022/09/19 07:39:35;;;;;;;6.07;1.90;;;;;;;;;;4846515;29;20059;-73
2022/09/19 07:42:40;;;;;;;3.80;1.63;;;;;;;;;;4913442;29;20064;-69
2022/09/19 07:45:33;;;;;;;3.63;1.15;;;;;;;;;;4868723;29;20414;-69
2022/09/19 07:48:32;;;;;;;3.42;1.25;;;;;;;;;;4875881;29;20057;-67
2022/09/19 07:51:21;;;;;;;5.53;1.40;;;;;;;;;;4876441;29;20061;-67
2022/09/19 07:53:54;;;;;;;5.63;1.60;;;;;;;;;;4865976;29;20533;-67
2022/09/19 07:56:25;;;;;;;3.67;1.30;;;;;;;;;;4884518;29;20057;-67
2022/09/19 07:58:58;;;;;;;3.92;1.60;;;;;;;;;;4894501;29;20060;-68
2022/09/19 08:01:37;;;;;;;3.97;1.25;;;;;;;;;;4894414;29;20060;-67
2022/09/19 08:04:12;;;;;;;4.65;1.20;;;;;;;;;;4894035;29;20056;-67
2022/09/19 08:06:47;;;;;;;4.47;1.70;;;;;;;;;;4903459;29;20057;-66
2022/09/19 08:09:20;;;;;;;5.68;1.75;;;;;;;;;;4893709;29;20057;-67
2022/09/19 08:12:11;;;;;;;3.97;1.42;;;;;;;;;;4927245;29;20050;-67
2022/09/19 08:14:46;;;;;;;;;;;;;;;;;;4907927;29;20060;-66
2022/09/19 08:17:17;;;;;;;3.65;1.25;;;;;;;;;;4931813;29;19922;-66
2022/09/19 08:19:48;;;;;;;3.28;1.17;;;;;;;;;;4912744;29;20052;-66
2022/09/19 08:22:18;;;;;;;5.13;1.35;;;;;;;;;;4893719;29;20056;-67
2022/09/19 08:25:04;;;;;;;6.13;1.42;;;;;;;;;;4893483;29;20053;-67
2022/09/19 08:27:37;;;;;;;2.90;1.20;;;;;;;;;;4912553;29;20048;-67
2022/09/19 08:30:09;;;;;;;4.38;1.50;;;;;;;;;;4928430;29;20390;-67
2022/09/19 08:32:39;;;;;;;3.15;1.30;;;;;;;;;;4912946;29;20060;-67
2022/09/19 08:35:12;;;;;;;3.90;1.27;;;;;;;;;;4930900;29;20060;-67
2022/09/19 08:37:44;;;;;;;4.53;1.10;;;;;;;;;;4893656;29;20068;-67
2022/09/19 08:40:21;;;;;;;4.80;1.65;;;;;;;;;;4912297;29;20055;-68
2022/09/19 08:43:16;;;;;;;2.25;0.80;;;;;;;;;;4912569;29;20196;-72
2022/09/19 08:46:03;;;;;;;3.35;1.15;;;;;;;;;;4862959;29;20064;-69
2022/09/19 08:48:42;;;;;;;4.60;1.30;;;;;;;;;;4862685;29;20056;-68
2022/09/19 08:51:42;;;;;;;5.55;1.77;;;;;;;;;;4893233;29;20053;-67
2022/09/19 08:54:40;;;;;;;4.60;1.48;;;;;;;;;;4912075;29;20052;-67
2022/09/19 08:57:38;;;;;;;3.58;1.40;;;;;;;;;;4820711;29;20054;-68
2022/09/19 09:00:27;;;;;;;3.42;1.40;;;;;;;;;;4826684;29;20061;-67
2022/09/19 09:03:04;;;;;;;3.13;1.20;;;;;;;;;;4801156;29;20066;-64
2022/09/19 09:05:55;;;;;;;4.03;1.40;;;;;;;;;;4784095;29;20195;-65
2022/09/19 09:09:12;;;;;;;6.43;1.13;;;;;;;;;;4782697;29;20071;-69
2022/09/19 09:11:58;;;;;;;3.75;1.40;;;;;;;;;;4783478;30;20097;-67
2022/09/19 09:14:51;;;;;;;5.00;1.58;;;;;;;;;;4768340;30;20047;-67
2022/09/19 09:18:18;;;;;;;4.80;1.40;;;;;;;;;;4783521;30;20055;-68
2022/09/19 09:21:04;;;;;;;4.53;1.30;;;;;;;;;;4819283;29;20066;-66
2022/09/19 09:23:44;;;;;;;4.93;1.45;;;;;;;;;;4821839;29;20077;-66
2022/09/19 09:26:47;;;;;;;4.28;1.50;;;;;;;;;;4804895;29;20459;-67
2022/09/19 09:29:27;;;;;;;6.00;1.30;;;;;;;;;;4801151;29;20062;-67
2022/09/19 09:32:26;;;;;;;12.50;5.07;;;;;;;;;;4780210;29;20075;-67
2022/09/19 09:35:29;;;;;;;10.95;4.82;;;;;;;;;;4800334;29;20069;-68
2022/09/19 09:38:22;;;;;;;8.73;3.65;;;;;;;;;;4821228;29;20054;-66
2022/09/19 09:44:13;;;;;;;8.57;2.67;;;;;;;;;;4835732;29;20054;-67
2022/09/19 09:47:04;;;;;;;10.30;2.53;;;;;;;;;;4863081;29;20064;-67
2022/09/19 09:49:40;;;;;;;6.95;1.80;;;;;;;;;;4892098;29;20068;-65
2022/09/19 09:52:26;;;;;;;5.18;1.63;;;;;;;;;;4877661;29;20413;-66
2022/09/19 09:58:26;;;;;;;8.60;2.67;;;;;;;;;;4852636;29;20515;-65
2022/09/19 10:04:27;;;;;;;8.55;2.45;;;;;;;;;;4836609;29;20062;-65
2022/09/19 10:07:24;;;;;;;8.40;2.35;;;;;;;;;;4861182;29;20060;-66
2022/09/19 10:10:22;;;;;;;7.32;1.50;;;;;;;;;;4914735;29;20056;-66
2022/09/19 10:13:07;;;;;;;4.25;1.35;;;;;;;;;;4895999;29;20405;-66
2022/09/19 10:15:42;;;;;;;3.83;1.50;;;;;;;;;;4904610;29;20083;-65
2022/09/19 10:18:20;;;;;;;2.58;0.75;;;;;;;;;;4895773;29;20052;-65
2022/09/19 10:21:00;;;;;;;2.50;0.82;;;;;;;;;;4895503;29;20052;-64
2022/09/19 10:23:34;;;;;;;3.83;1.13;;;;;;;;;;4864874;29;20057;-63
2022/09/19 10:26:22;;;;;;;2.97;1.15;;;;;;;;;;4816217;29;20055;-62
2022/09/19 10:29:04;;;;;;;2.33;0.93;;;;;;;;;;4827770;29;20055;-62
2022/09/19 10:31:40;;;;;;;5.25;2.10;;;;;;;;;;4789096;29;20059;-62
2022/09/19 10:34:33;;;;;;;4.75;1.55;;;;;;;;;;4821436;29;20063;-62
2022/09/19 10:37:14;;;;;;;5.35;1.80;;;;;;;;;;4876837;29;20195;-62
2022/09/19 10:39:48;;;;;;;3.85;1.05;;;;;;;;;;4840422;29;20054;-63
2022/09/19 10:42:41;;;;;;;5.93;1.48;;;;;;;;;;4857939;29;20694;-64
2022/09/19 10:45:25;;;;;;;4.88;2.30;;;;;;;;;;4858168;29;20418;-63
2022/09/19 10:48:16;;;;;;;6.53;1.30;;;;;;;;;;4870031;29;20049;-64
2022/09/19 10:50:48;;;;;;;5.47;1.23;;;;;;;;;;4911828;29;20421;-64
2022/09/19 10:53:28;;;;;;;5.30;1.33;;;;;;;;;;4914025;29;20051;-64
2022/09/19 10:56:04;;;;;;;2.67;1.23;;;;;;;;;;4930034;29;20059;-63
2022/09/19 10:58:41;;;;;;;4.13;1.13;;;;;;;;;;4913378;29;20059;-63
2022/09/19 11:01:31;;;;;;;6.70;1.50;;;;;;;;;;4864962;29;20053;-63
2022/09/19 11:04:18;;;;;;;5.82;2.00;;;;;;;;;;4895149;29;20165;-62
2022/09/19 11:07:02;;;;;;;5.75;1.70;;;;;;;;;;4894460;29;20059;-63
2022/09/19 11:09:37;;;;;;;4.15;1.35;;;;;;;;;;4861240;29;20068;-62
2022/09/19 11:12:18;;;;;;;4.75;1.60;;;;;;;;;;4875982;29;20057;-63
2022/09/19 11:14:50;;;;;;;5.60;1.33;;;;;;;;;;4833420;29;20061;-62
2022/09/19 11:18:11;;;;;;;5.72;1.50;;;;;;;;;;4802402;29;20061;-62
2022/09/19 11:21:07;;;;;;;4.90;1.58;;;;;;;;;;4824310;29;20054;-62
2022/09/19 11:24:01;;;;;;;4.68;1.70;;;;;;;;;;4842011;29;20041;-63
2022/09/19 11:26:49;;;;;;;6.78;2.53;;;;;;;;;;4872238;29;20052;-63
2022/09/19 11:29:20;;;;;;;5.28;2.20;;;;;;;;;;4857600;29;20081;-62
2022/09/19 11:32:06;;;;;;;6.30;2.55;;;;;;;;;;4891800;29;20943;-63
2022/09/19 11:35:25;;;;;;;3.90;1.63;;;;;;;;;;4894204;29;20423;-62
2022/09/19 11:38:15;;;;;;;3.92;1.48;;;;;;;;;;4860011;29;20103;-62
2022/09/19 11:41:23;;;;;;;4.15;1.60;;;;;;;;;;4861787;29;20057;-63
2022/09/19 11:44:36;;;;;;;3.10;1.40;;;;;;;;;;4863115;29;20052;-61
2022/09/19 11:47:31;;;;;;;4.95;1.60;;;;;;;;;;4828593;29;20042;-62
2022/09/19 11:50:29;;;;;;;4.45;1.33;;;;;;;;;;4868081;29;20516;-62
2022/09/19 11:53:13;;;;;;;4.07;1.30;;;;;;;;;;4813258;29;20054;-64
2022/09/19 11:56:23;;;;;;;3.33;1.17;;;;;;;;;;4804316;29;20063;-62
2022/09/19 11:59:15;;;;;;;5.90;2.35;;;;;;;;;;4802286;29;20063;-62
2022/09/19 12:02:13;;;;;;;4.00;1.92;;;;;;;;;;4786832;29;20436;-63
2022/09/19 12:05:19;;;;;;;3.97;2.05;;;;;;;;;;4801923;29;20059;-63
2022/09/19 12:08:13;;;;;;;2.80;1.33;;;;;;;;;;4801801;29;20416;-61
2022/09/19 12:10:50;;;;;;;4.00;1.98;;;;;;;;;;4778555;29;20060;-61
2022/09/19 12:13:22;;;;;;;6.25;1.55;;;;;;;;;;4766132;29;20052;-62
2022/09/19 12:16:10;;;;;;;8.18;2.60;;;;;;;;;;4799033;29;20062;-62
2022/09/19 12:19:24;;;;;;;4.43;1.88;;;;;;;;;;4829602;29;20523;-62
2022/09/19 12:21:59;;;;;;;5.25;1.77;;;;;;;;;;4852908;29;20444;-62
2022/09/19 12:24:55;;;;;;;2.83;1.60;;;;;;;;;;4901066;29;20405;-62
2022/09/19 12:27:37;;;;;;;4.97;1.75;;;;;;;;;;4927729;29;20056;-62
2022/09/19 12:30:31;;;;;;;3.80;1.70;;;;;;;;;;4912769;29;20081;-62
2022/09/19 12:33:06;;;;;;;3.30;1.30;;;;;;;;;;4893377;29;20056;-63
2022/09/19 12:36:01;;;;;;;3.60;1.42;;;;;;;;;;4893465;29;20056;-62
2022/09/19 12:39:08;;;;;;;4.80;1.50;;;;;;;;;;4853880;29;20056;-63
2022/09/19 12:41:57;;;;;;;3.17;1.25;;;;;;;;;;4838172;29;20526;-62
2022/09/19 12:44:51;;;;;;;4.45;1.88;;;;;;;;;;4838047;29;20050;-62
2022/09/19 12:48:01;;;;;;;4.45;1.40;;;;;;;;;;4855980;29;20890;-62
2022/09/19 12:50:49;;;;;;;4.25;1.80;;;;;;;;;;4830716;29;20421;-63
2022/09/19 12:53:35;;;;;;;6.65;1.92;;;;;;;;;;4813127;29;20050;-62
2022/09/19 12:56:10;;;;;;;3.90;1.27;;;;;;;;;;4795818;29;20071;-63
2022/09/19 12:58:53;;;;;;;9.38;2.78;;;;;;;;;;4785280;29;20060;-61
2022/09/19 13:01:34;;;;;;;5.53;2.08;;;;;;;;;;4811052;29;20054;-62
2022/09/19 13:04:21;;;;;;;8.95;3.80;;;;;;;;;;4841758;29;20062;-62
2022/09/19 13:07:01;;;;;;;4.13;1.67;;;;;;;;;;4841656;29;20424;-63
2022/09/19 13:09:50;;;;;;;4.43;1.65;;;;;;;;;;4834810;29;20070;-62
2022/09/19 13:12:50;;;;;;;4.95;1.45;;;;;;;;;;4861542;29;20061;-63
2022/09/19 13:16:01;;;;;;;4.30;1.63;;;;;;;;;;4807692;29;20492;-63
2022/09/19 13:23:30;;;;;;;5.25;1.83;;;;;;;;;;4804109;29;20839;-63
2022/09/19 13:24:59;;;;;;;4.53;1.80;;;;;;;;;;4829223;29;21170;-64
2022/09/19 13:27:30;;;;;;;5.43;2.10;;;;;;;;;;4828490;29;20048;-62
2022/09/19 13:30:02;;;;;;;5.68;1.67;;;;;;;;;;4850784;29;20049;-62
2022/09/19 13:32:53;;;;;;;4.22;1.55;;;;;;;;;;4915602;29;20053;-62
2022/09/19 13:35:25;;;;;;;6.88;2.22;;;;;;;;;;4930715;29;20051;-62
2022/09/19 13:38:00;;;;;;;4.32;1.67;;;;;;;;;;4919004;29;20416;-63
2022/09/19 13:40:39;;;;;;;6.18;2.30;;;;;;;;;;4898308;29;20044;-62
2022/09/19 13:43:18;;;;;;;5.93;1.52;;;;;;;;;;4897783;29;20452;-63
2022/09/19 13:46:10;;;;;;;4.53;1.60;;;;;;;;;;4915601;29;20060;-63
2022/09/19 13:49:05;;;;;;;5.20;2.22;;;;;;;;;;4916045;29;20564;-64
2022/09/19 13:51:41;;;;;;;5.07;1.92;;;;;;;;;;4924417;28;20058;-64
2022/09/19 13:54:21;;;;;;;3.55;1.67;;;;;;;;;;4957179;28;20063;-63
2022/09/19 13:57:03;;;;;;;3.65;1.20;;;;;;;;;;4972792;28;20585;-63
2022/09/19 13:59:39;;;;;;;3.20;1.30;;;;;;;;;;4986758;28;20055;-63
2022/09/19 14:02:15;;;;;;;4.47;1.67;;;;;;;;;;4956958;28;20051;-63
2022/09/19 14:05:05;;;;;;;5.65;3.20;;;;;;;;;;5012078;28;20054;-63
2022/09/19 14:07:51;;;;;;;9.32;3.88;;;;;;;;;;4952843;28;20051;-62
2022/09/19 14:10:52;;;;;;;11.77;6.85;;;;;;;;;;4953435;29;20727;-63
2022/09/19 14:13:29;;;;;;;6.57;2.85;;;;;;;;;;4864972;29;20048;-63
2022/09/19 14:16:08;;;;;;;4.55;2.15;;;;;;;;;;4896444;29;20075;-63
2022/09/19 14:18:52;;;;;;;5.25;2.20;;;;;;;;;;4896029;29;20084;-63
2022/09/19 14:21:35;;;;;;;4.90;1.90;;;;;;;;;;4896368;29;20056;-63
2022/09/19 14:24:35;;;;;;;5.60;2.05;;;;;;;;;;4877246;29;20049;-63
2022/09/19 14:27:31;;;;;;;7.28;2.92;;;;;;;;;;4877670;29;20060;-63
2022/09/19 14:30:13;;;;;;;7.70;3.30;;;;;;;;;;4877598;29;20105;-63
2022/09/19 14:33:19;;;;;;;7.35;2.13;;;;;;;;;;4877420;29;20061;-63
2022/09/19 14:36:22;;;;;;;3.90;1.42;;;;;;;;;;4877184;29;20175;-63
2022/09/19 14:39:30;;;;;;;5.38;1.77;;;;;;;;;;4842373;29;20054;-63
2022/09/19 14:42:01;;;;;;;3.70;1.42;;;;;;;;;;4858552;29;20191;-62
2022/09/19 14:44:58;;;;;;;5.65;2.00;;;;;;;;;;4863066;29;20533;-63
2022/09/19 14:47:39;;;;;;;6.38;1.85;;;;;;;;;;4876533;29;20056;-63
2022/09/19 14:50:23;;;;;;;4.50;1.50;;;;;;;;;;4854684;29;20062;-63
2022/09/19 14:53:25;;;;;;;4.30;1.35;;;;;;;;;;4933481;29;20409;-63
2022/09/19 14:56:10;;;;;;;6.13;1.73;;;;;;;;;;4940023;28;20063;-64
2022/09/19 14:58:41;;;;;;;4.72;1.73;;;;;;;;;;4952412;28;20070;-63
2022/09/19 15:01:16;;;;;;;4.55;1.55;;;;;;;;;;4957878;28;20058;-64
2022/09/19 15:03:57;;;;;;;6.18;1.60;;;;;;;;;;4952217;29;20062;-63
2022/09/19 15:06:42;;;;;;;4.00;1.70;;;;;;;;;;4952328;28;20070;-64
2022/09/19 15:09:28;;;;;;;11.13;2.10;;;;;;;;;;4952290;29;20063;-63
2022/09/19 15:12:02;;;;;;;5.38;2.08;;;;;;;;;;4952299;29;20086;-62
2022/09/19 15:14:32;;;;;;;4.53;1.77;;;;;;;;;;4952265;29;20043;-63
2022/09/19 15:17:24;;;;;;;7.15;1.92;;;;;;;;;;4951832;28;20427;-62
2022/09/19 15:20:17;;;;;;;6.28;1.98;;;;;;;;;;4980789;28;20077;-63
2022/09/19 15:22:57;;;;;;;5.53;1.85;;;;;;;;;;4990955;28;20055;-63
2022/09/19 15:25:37;;;;;;;4.18;1.60;;;;;;;;;;4998906;28;20054;-63
2022/09/19 15:28:28;;;;;;;3.35;1.38;;;;;;;;;;4998011;28;20088;-65
2022/09/19 15:31:01;;;;;;;3.60;1.70;;;;;;;;;;5030263;28;20396;-65
2022/09/19 15:33:32;;;;;;;3.92;1.20;;;;;;;;;;5029843;28;20057;-65
2022/09/19 15:36:03;;;;;;;4.45;1.70;;;;;;;;;;5009836;28;20446;-66
2022/09/19 15:38:36;;;;;;;4.05;1.70;;;;;;;;;;5010240;28;20062;-64
2022/09/19 15:41:08;;;;;;;4.22;1.88;;;;;;;;;;5000999;28;20054;-63
2022/09/19 15:43:46;;;;;;;5.97;1.77;;;;;;;;;;5029740;28;20621;-63
2022/09/19 15:46:37;;;;;;;3.67;1.50;;;;;;;;;;5029642;28;20049;-64
2022/09/19 15:49:33;;;;;;;4.00;1.55;;;;;;;;;;5029525;28;20053;-64
2022/09/19 15:52:15;;;;;;;4.07;1.60;;;;;;;;;;5029571;28;20041;-64
2022/09/19 15:54:55;;;;;;;3.45;1.48;;;;;;;;;;5040486;28;20501;-65
2022/09/19 15:57:31;;;;;;;3.85;1.75;;;;;;;;;;5049364;28;20057;-64
2022/09/19 16:00:21;;;;;;;6.22;1.90;;;;;;;;;;5033280;28;20053;-65
2022/09/19 16:02:58;;;;;;;6.68;1.42;;;;;;;;;;5049238;28;20064;-66
2022/09/19 16:05:33;;;;;;;6.95;2.88;;;;;;;;;;5033090;28;20456;-64
2022/09/19 16:11:39;;;;;;;4.30;1.63;;;;;;;;;;5029465;28;20053;-66
2022/09/19 16:14:26;;;;;;;3.28;1.48;;;;;;;;;;5013388;28;20475;-67
2022/09/19 16:16:59;;;;;;;4.13;1.80;;;;;;;;;;5053394;28;20060;-67
2022/09/19 16:19:32;;;;;;;2.53;1.20;;;;;;;;;;5069037;28;20060;-67
2022/09/19 16:22:03;;;;;;;3.47;1.48;;;;;;;;;;5019473;28;20052;-67
2022/09/19 16:24:46;;;;;;;3.95;1.95;;;;;;;;;;5003270;28;20060;-67
2022/09/19 16:27:26;;;;;;;3.33;1.33;;;;;;;;;;5052684;28;20060;-67
2022/09/19 16:30:00;;;;;;;4.25;1.50;;;;;;;;;;5068714;28;20440;-67
2022/09/19 16:32:31;;;;;;;4.68;1.65;;;;;;;;;;5068553;28;20063;-67